createdAt,value
2023-04-02T00:00:01.900Z,100396.86
2023-04-02T00:01:03.708Z,100391.67
2023-04-02T00:02:05.600Z,100399.44
2023-04-02T00:03:07.584Z,100395.12
2023-04-02T00:04:09.564Z,100395.98
2023-04-02T00:05:11.424Z,100394.24
2023-04-02T00:06:13.238Z,100395.98
2023-04-02T00:07:15.032Z,100400.31
2023-04-02T00:08:16.888Z,100396.78
2023-04-02T00:09:18.751Z,100395.92
2023-04-02T00:10:20.696Z,100394.19
2023-04-02T00:11:22.504Z,100393.33
2023-04-02T00:12:24.309Z,100395.92
2023-04-02T00:13:26.224Z,100396.78
2023-04-02T00:14:28.022Z,100408.05
2023-04-02T00:15:29.833Z,100407.08
2023-04-02T00:16:31.721Z,100404.47
2023-04-02T00:17:33.620Z,100396.64
2023-04-02T00:18:35.486Z,100400.05
2023-04-02T00:19:37.287Z,100396.63
2023-04-02T00:20:39.305Z,100394.01
2023-04-02T00:21:41.118Z,100395.73
2023-04-02T00:22:42.940Z,100400.93
2023-04-02T00:23:44.785Z,100398.34
2023-04-02T00:24:46.607Z,100402.59
2023-04-02T00:25:48.408Z,100396.52
2023-04-02T00:26:50.216Z,100399.91
2023-04-02T00:27:52.040Z,100399.89
2023-04-02T00:28:53.934Z,100405.08
2023-04-02T00:29:55.711Z,100397.28
2023-04-02T00:30:57.518Z,100402.46
2023-04-02T00:31:59.402Z,100402.50
2023-04-02T00:33:01.272Z,100410.30
2023-04-02T00:34:03.110Z,100403.41
2023-04-02T00:35:04.932Z,100399.03
2023-04-02T00:36:06.880Z,100412.86
2023-04-02T00:37:08.688Z,100408.54
2023-04-02T00:38:10.481Z,100406.80
2023-04-02T00:39:12.351Z,100410.27
2023-04-02T00:40:15.688Z,100412.02
2023-04-02T00:41:17.505Z,100408.61
2023-04-02T00:42:19.304Z,100413.81
2023-04-02T00:43:21.114Z,100413.85
2023-04-02T00:44:22.957Z,100411.22
2023-04-02T00:45:24.868Z,100406.87
2023-04-02T00:46:26.764Z,100405.98
2023-04-02T00:47:28.647Z,100413.81
2023-04-02T00:48:30.414Z,100409.47
2023-04-02T00:49:32.267Z,100412.08
2023-04-02T00:50:34.068Z,100408.64
2023-04-02T00:51:35.980Z,100403.46
2023-04-02T00:52:37.763Z,100411.28
2023-04-02T00:53:39.562Z,100407.84
2023-04-02T00:54:41.435Z,100416.53
2023-04-02T00:55:43.276Z,100410.47
2023-04-02T00:56:45.079Z,100418.30
2023-04-02T00:57:46.894Z,100416.57
2023-04-02T00:58:48.711Z,100415.70
2023-04-02T00:59:50.532Z,100413.11
2023-04-02T01:00:52.330Z,100414.00
2023-04-02T01:01:54.144Z,100414.00
2023-04-02T01:02:56.178Z,100415.72
2023-04-02T01:03:58.041Z,100414.90
2023-04-02T01:04:59.987Z,100415.80
2023-04-02T01:06:02.196Z,100412.33
2023-04-02T01:07:03.998Z,100409.71
2023-04-02T01:08:05.798Z,100419.22
2023-04-02T01:09:07.600Z,100407.09
2023-04-02T01:10:10.480Z,100415.77
2023-04-02T01:11:12.409Z,100410.61
2023-04-02T01:12:14.176Z,100411.46
2023-04-02T01:13:15.986Z,100412.33
2023-04-02T01:14:17.795Z,100409.77
2023-04-02T01:15:19.636Z,100413.26
2023-04-02T01:16:21.629Z,100413.28
2023-04-02T01:17:23.519Z,100416.73
2023-04-02T01:18:25.278Z,100414.14
2023-04-02T01:19:27.079Z,100411.55
2023-04-02T01:20:28.916Z,100406.36
2023-04-02T01:21:30.767Z,100410.70
2023-04-02T01:22:32.573Z,100406.36
2023-04-02T01:23:34.381Z,100403.77
2023-04-02T01:24:36.171Z,100409.81
2023-04-02T01:25:38.049Z,100406.37
2023-04-02T01:26:39.848Z,100409.83
2023-04-02T01:27:41.641Z,100408.97
2023-04-02T01:28:43.426Z,100400.33
2023-04-02T01:29:45.222Z,100406.37
2023-04-02T01:30:47.075Z,100400.33
2023-04-02T01:31:48.995Z,100409.83
2023-04-02T01:32:51.015Z,100403.78
2023-04-02T01:33:52.791Z,100410.70
2023-04-02T01:34:54.599Z,100398.59
2023-04-02T01:35:56.461Z,100404.64
2023-04-02T01:36:58.254Z,100402.94
2023-04-02T01:38:00.075Z,100406.37
2023-04-02T01:39:01.870Z,100403.78
2023-04-02T01:40:03.685Z,100407.23
2023-04-02T01:41:05.533Z,100399.47
2023-04-02T01:42:07.326Z,100400.36
2023-04-02T01:43:09.143Z,100404.67
2023-04-02T01:44:10.947Z,100399.53
2023-04-02T01:45:15.773Z,100401.28
2023-04-02T01:46:17.934Z,100405.61
2023-04-02T01:47:19.787Z,100394.38
2023-04-02T01:48:21.585Z,100403.89
2023-04-02T01:49:23.382Z,100410.84
2023-04-02T01:50:25.306Z,100407.39
2023-04-02T01:51:27.244Z,100406.55
2023-04-02T01:52:29.038Z,100410.08
2023-04-02T01:53:30.863Z,100410.08
2023-04-02T01:54:32.655Z,100404.89
2023-04-02T01:55:34.587Z,100407.51
2023-04-02T01:56:36.707Z,100415.31
2023-04-02T01:57:38.500Z,100413.54
2023-04-02T01:58:40.308Z,100408.33
2023-04-02T01:59:42.121Z,100410.92
2023-04-02T02:00:44.084Z,100394.50
2023-04-02T02:01:45.891Z,100397.91
2023-04-02T02:02:47.691Z,100404.79
2023-04-02T02:03:49.495Z,100401.36
2023-04-02T02:04:51.388Z,100401.36
2023-04-02T02:05:53.208Z,100405.69
2023-04-02T02:06:55.025Z,100399.69
2023-04-02T02:07:56.852Z,100397.95
2023-04-02T02:08:58.641Z,100400.55
2023-04-02T02:10:00.697Z,100395.36
2023-04-02T02:11:02.511Z,100401.36
2023-04-02T02:12:04.368Z,100398.76
2023-04-02T02:13:06.222Z,100393.57
2023-04-02T02:14:08.031Z,100398.74
2023-04-02T02:15:09.841Z,100394.38
2023-04-02T02:16:12.496Z,100403.02
2023-04-02T02:17:14.344Z,100393.46
2023-04-02T02:18:16.149Z,100409.03
2023-04-02T02:19:17.949Z,100398.61
2023-04-02T02:20:19.756Z,100402.01
2023-04-02T02:21:21.572Z,100395.09
2023-04-02T02:22:23.400Z,100401.11
2023-04-02T02:23:25.206Z,100405.33
2023-04-02T02:24:27.046Z,100405.33
2023-04-02T02:25:28.836Z,100410.49
2023-04-02T02:26:30.648Z,100397.52
2023-04-02T02:27:32.395Z,100403.56
2023-04-02T02:28:34.184Z,100409.59
2023-04-02T02:29:35.981Z,100410.41
2023-04-02T02:30:37.890Z,100406.95
2023-04-02T02:31:39.732Z,100406.98
2023-04-02T02:32:41.606Z,100398.34
2023-04-02T02:33:43.442Z,100402.65
2023-04-02T02:34:45.234Z,100401.77
2023-04-02T02:35:47.065Z,100398.31
2023-04-02T02:36:48.857Z,100406.91
2023-04-02T02:37:50.692Z,100397.36
2023-04-02T02:38:54.239Z,100400.80
2023-04-02T02:39:56.112Z,100403.41
2023-04-02T02:40:57.906Z,100403.46
2023-04-02T02:41:59.718Z,100398.23
2023-04-02T02:43:01.581Z,100403.41
2023-04-02T02:44:03.283Z,100399.93
2023-04-02T02:45:04.975Z,100398.23
2023-04-02T02:46:07.220Z,100399.91
2023-04-02T02:47:08.969Z,100403.37
2023-04-02T02:48:10.816Z,100404.23
2023-04-02T02:49:12.615Z,100400.78
2023-04-02T02:50:14.452Z,100403.30
2023-04-02T02:51:16.231Z,100402.44
2023-04-02T02:52:18.034Z,100407.63
2023-04-02T02:53:19.880Z,100405.03
2023-04-02T02:54:21.700Z,100410.23
2023-04-02T02:55:23.492Z,100405.05
2023-04-02T02:56:25.303Z,100414.55
2023-04-02T02:57:27.147Z,100409.36
2023-04-02T02:58:28.947Z,100414.52
2023-04-02T02:59:30.744Z,100411.03
2023-04-02T03:00:32.560Z,100411.05
2023-04-02T03:01:34.377Z,100416.23
2023-04-02T03:02:36.292Z,100417.97
2023-04-02T03:03:38.328Z,100421.50
2023-04-02T03:04:40.218Z,100412.83
2023-04-02T03:05:42.020Z,100412.83
2023-04-02T03:06:43.923Z,100414.61
2023-04-02T03:07:45.728Z,100415.48
2023-04-02T03:08:47.597Z,100420.70
2023-04-02T03:09:49.398Z,100415.48
2023-04-02T03:10:51.207Z,100424.16
2023-04-02T03:11:53.022Z,100414.62
2023-04-02T03:12:54.810Z,100411.97
2023-04-02T03:13:56.665Z,100417.99
2023-04-02T03:14:58.454Z,100422.32
2023-04-02T03:16:00.274Z,100419.70
2023-04-02T03:17:02.062Z,100424.02
2023-04-02T03:18:03.991Z,100423.18
2023-04-02T03:19:05.811Z,100417.16
2023-04-02T03:20:07.709Z,100419.77
2023-04-02T03:21:09.952Z,100422.38
2023-04-02T03:22:11.776Z,100417.18
2023-04-02T03:23:13.572Z,100417.18
2023-04-02T03:24:15.429Z,100418.94
2023-04-02T03:25:17.252Z,100419.80
2023-04-02T03:26:19.061Z,100418.94
2023-04-02T03:27:20.860Z,100415.45
2023-04-02T03:28:22.684Z,100420.63
2023-04-02T03:29:24.539Z,100414.56
2023-04-02T03:30:26.451Z,100411.08
2023-04-02T03:31:28.252Z,100419.75
2023-04-02T03:32:30.205Z,100426.61
2023-04-02T03:33:32.068Z,100417.97
2023-04-02T03:34:33.924Z,100414.52
2023-04-02T03:35:36.037Z,100420.55
2023-04-02T03:36:38.138Z,100419.70
2023-04-02T03:37:39.940Z,100421.42
2023-04-02T03:38:41.758Z,100417.14
2023-04-02T03:39:43.643Z,100414.56
2023-04-02T03:40:45.644Z,100425.81
2023-04-02T03:41:47.474Z,100414.61
2023-04-02T03:42:49.283Z,100419.77
2023-04-02T03:43:51.071Z,100417.18
2023-04-02T03:44:52.937Z,100430.19
2023-04-02T03:45:54.735Z,100421.55
2023-04-02T03:46:56.543Z,100424.98
2023-04-02T03:47:58.432Z,100426.69
2023-04-02T03:49:00.258Z,100426.69
2023-04-02T03:50:02.124Z,100424.98
2023-04-02T03:51:03.941Z,100423.27
2023-04-02T03:52:05.749Z,100424.20
2023-04-02T03:53:07.446Z,100419.90
2023-04-02T03:54:09.245Z,100424.25
2023-04-02T03:55:11.115Z,100417.33
2023-04-02T03:56:13.523Z,100422.49
2023-04-02T03:57:15.356Z,100425.09
2023-04-02T03:58:17.254Z,100425.95
2023-04-02T03:59:19.035Z,100426.86
2023-04-02T04:00:20.988Z,100421.67
2023-04-02T04:01:22.793Z,100424.27
2023-04-02T04:02:24.675Z,100430.31
2023-04-02T04:03:26.499Z,100427.72
2023-04-02T04:04:28.395Z,100428.56
2023-04-02T04:05:30.280Z,100428.56
2023-04-02T04:06:32.200Z,100429.45
2023-04-02T04:07:34.008Z,100429.45
2023-04-02T04:08:35.828Z,100426.84
2023-04-02T04:09:37.667Z,100432.05
2023-04-02T04:10:39.484Z,100435.48
2023-04-02T04:11:41.299Z,100425.11
2023-04-02T04:12:43.081Z,100434.64
2023-04-02T04:13:44.884Z,100435.52
2023-04-02T04:14:46.693Z,100438.14
2023-04-02T04:15:48.556Z,100439.02
2023-04-02T04:16:50.362Z,100437.31
2023-04-02T04:17:52.188Z,100438.18
2023-04-02T04:18:53.982Z,100436.42
2023-04-02T04:19:55.795Z,100439.89
2023-04-02T04:20:57.648Z,100438.16
2023-04-02T04:21:59.447Z,100438.14
2023-04-02T04:23:01.255Z,100438.14
2023-04-02T04:24:03.096Z,100438.16
2023-04-02T04:25:04.908Z,100433.81
2023-04-02T04:26:07.072Z,100433.81
2023-04-02T04:27:08.885Z,100440.75
2023-04-02T04:28:10.716Z,100438.16
2023-04-02T04:29:12.575Z,100436.38
2023-04-02T04:30:14.385Z,100433.77
2023-04-02T04:31:16.237Z,100432.89
2023-04-02T04:32:18.208Z,100432.87
2023-04-02T04:33:20.148Z,100434.63
2023-04-02T04:34:21.970Z,100429.39
2023-04-02T04:35:23.797Z,100439.77
2023-04-02T04:36:25.636Z,100439.77
2023-04-02T04:37:27.440Z,100438.03
2023-04-02T04:38:29.280Z,100443.26
2023-04-02T04:39:31.100Z,100437.23
2023-04-02T04:40:32.924Z,100439.84
2023-04-02T04:41:34.774Z,100432.92
2023-04-02T04:42:36.579Z,100441.55
2023-04-02T04:43:38.381Z,100438.09
2023-04-02T04:44:40.204Z,100435.48
2023-04-02T04:45:42.043Z,100436.34
2023-04-02T04:46:44.064Z,100436.38
2023-04-02T04:47:45.891Z,100439.87
2023-04-02T04:48:47.691Z,100440.73
2023-04-02T04:49:49.495Z,100438.14
2023-04-02T04:50:51.311Z,100432.09
2023-04-02T04:51:53.138Z,100432.92
2023-04-02T04:52:54.942Z,100440.70
2023-04-02T04:53:56.755Z,100434.64
2023-04-02T04:54:58.561Z,100438.95
2023-04-02T04:56:12.507Z,100442.44
2023-04-02T04:57:04.082Z,100435.50
2023-04-02T04:58:05.845Z,100432.92
2023-04-02T04:59:07.653Z,100432.06
2023-04-02T05:00:09.757Z,100431.17
2023-04-02T05:01:11.596Z,100431.17
2023-04-02T05:02:13.546Z,100422.58
2023-04-02T05:03:15.434Z,100428.58
2023-04-02T05:04:17.266Z,100431.17
2023-04-02T05:05:19.158Z,100429.45
2023-04-02T05:06:20.966Z,100428.54
2023-04-02T05:07:22.815Z,100427.67
2023-04-02T05:08:24.615Z,100431.13
2023-04-02T05:09:26.422Z,100427.70
2023-04-02T05:10:28.243Z,100432.91
2023-04-02T05:11:30.054Z,100435.50
2023-04-02T05:12:31.926Z,100432.91
2023-04-02T05:13:33.740Z,100437.25
2023-04-02T05:14:35.572Z,100437.25
2023-04-02T05:15:37.502Z,100432.91
2023-04-02T05:16:39.524Z,100430.34
2023-04-02T05:17:41.432Z,100434.69
2023-04-02T05:18:43.236Z,100432.95
2023-04-02T05:19:45.044Z,100426.05
2023-04-02T05:20:46.843Z,100434.75
2023-04-02T05:21:48.663Z,100429.58
2023-04-02T05:22:50.495Z,100429.60
2023-04-02T05:23:52.319Z,100435.67
2023-04-02T05:24:54.118Z,100445.24
2023-04-02T05:25:55.922Z,100435.70
2023-04-02T05:26:57.739Z,100439.23
2023-04-02T05:27:59.602Z,100440.95
2023-04-02T05:29:01.399Z,100431.50
2023-04-02T05:30:03.196Z,100429.77
2023-04-02T05:31:05.012Z,100425.44
2023-04-02T05:32:06.797Z,100439.31
2023-04-02T05:33:08.712Z,100441.93
2023-04-02T05:34:10.471Z,100442.81
2023-04-02T05:35:12.267Z,100437.64
2023-04-02T05:36:14.199Z,100429.86
2023-04-02T05:37:15.973Z,100433.33
2023-04-02T05:38:17.823Z,100433.42
2023-04-02T05:39:19.622Z,100435.16
2023-04-02T05:40:21.422Z,100436.09
2023-04-02T05:41:23.218Z,100437.84
2023-04-02T05:42:25.033Z,100435.25
2023-04-02T05:43:26.887Z,100435.27
2023-04-02T05:44:28.688Z,100433.58
2023-04-02T05:45:30.487Z,100426.70
2023-04-02T05:46:32.339Z,100427.58
2023-04-02T05:47:34.135Z,100425.89
2023-04-02T05:48:35.995Z,100428.52
2023-04-02T05:49:37.754Z,100430.29
2023-04-02T05:50:39.554Z,100429.40
2023-04-02T05:51:41.267Z,100426.78
2023-04-02T05:52:43.109Z,100429.40
2023-04-02T05:53:44.953Z,100424.22
2023-04-02T05:54:46.721Z,100423.39
2023-04-02T05:55:48.526Z,100417.31
2023-04-02T05:56:50.367Z,100422.57
2023-04-02T05:58:13.505Z,100424.31
2023-04-02T05:58:55.918Z,100422.63
2023-04-02T05:59:57.737Z,100428.70
2023-04-02T06:00:59.595Z,100427.86
2023-04-02T06:02:01.467Z,100421.80
2023-04-02T06:03:03.412Z,100419.27
2023-04-02T06:04:05.292Z,100420.98
2023-04-02T06:05:07.132Z,100420.16
2023-04-02T06:06:09.234Z,100415.81
2023-04-02T06:07:11.027Z,100421.05
2023-04-02T06:08:12.830Z,100416.76
2023-04-02T06:09:14.672Z,100412.44
2023-04-02T06:10:16.777Z,100409.02
2023-04-02T06:11:18.642Z,100410.70
2023-04-02T06:12:20.494Z,100416.81
2023-04-02T06:13:22.404Z,100417.70
2023-04-02T06:14:24.244Z,100410.77
2023-04-02T06:15:26.056Z,100416.84
2023-04-02T06:16:27.898Z,100413.37
2023-04-02T06:17:29.781Z,100416.03
2023-04-02T06:18:31.582Z,100420.34
2023-04-02T06:19:33.418Z,100410.84
2023-04-02T06:20:35.226Z,100419.48
2023-04-02T06:21:37.016Z,100417.75
2023-04-02T06:22:38.887Z,100416.08
2023-04-02T06:23:40.738Z,100417.80
2023-04-02T06:24:42.583Z,100416.09
2023-04-02T06:25:44.373Z,100423.00
2023-04-02T06:26:46.182Z,100419.55
2023-04-02T06:27:47.995Z,100427.34
2023-04-02T06:28:50.838Z,100421.30
2023-04-02T06:29:52.690Z,100416.97
2023-04-02T06:30:54.537Z,100420.45
2023-04-02T06:31:56.190Z,100414.42
2023-04-02T06:32:58.019Z,100419.63
2023-04-02T06:33:59.789Z,100414.45
2023-04-02T06:35:01.653Z,100419.68
2023-04-02T06:36:03.455Z,100414.50
2023-04-02T06:37:05.281Z,100418.02
2023-04-02T06:38:07.122Z,100409.35
2023-04-02T06:39:08.925Z,100409.35
2023-04-02T06:40:10.853Z,100417.20
2023-04-02T06:41:12.664Z,100414.61
2023-04-02T06:42:14.484Z,100422.48
2023-04-02T06:43:16.286Z,100414.69
2023-04-02T06:44:18.126Z,100414.70
2023-04-02T06:45:20.109Z,100416.41
2023-04-02T06:46:21.935Z,100414.70
2023-04-02T06:47:23.773Z,100422.51
2023-04-02T06:48:25.572Z,100419.91
2023-04-02T06:49:27.389Z,100415.59
2023-04-02T06:50:29.251Z,100427.75
2023-04-02T06:51:31.069Z,100419.97
2023-04-02T06:52:34.977Z,100419.08
2023-04-02T06:53:36.479Z,100420.86
2023-04-02T06:54:38.282Z,100428.67
2023-04-02T06:55:40.198Z,100430.44
2023-04-02T06:56:42.051Z,100428.70
2023-04-02T06:57:43.846Z,100424.36
2023-04-02T06:58:45.714Z,100428.72
2023-04-02T06:59:47.560Z,100428.73
2023-04-02T07:00:49.369Z,100422.73
2023-04-02T07:01:51.337Z,100424.48
2023-04-02T07:02:53.141Z,100424.48
2023-04-02T07:03:54.983Z,100427.95
2023-04-02T07:04:56.827Z,100427.95
2023-04-02T07:05:58.749Z,100432.31
2023-04-02T07:07:00.541Z,100420.17
2023-04-02T07:08:02.365Z,100430.59
2023-04-02T07:09:04.187Z,100428.85
2023-04-02T07:10:06.286Z,100432.36
2023-04-02T07:11:08.227Z,100417.61
2023-04-02T07:12:10.041Z,100428.86
2023-04-02T07:13:11.829Z,100424.57
2023-04-02T07:14:13.680Z,100419.34
2023-04-02T07:15:15.567Z,100421.95
2023-04-02T07:16:17.717Z,100417.63
2023-04-02T07:17:19.749Z,100421.98
2023-04-02T07:18:21.550Z,100421.13
2023-04-02T07:19:23.256Z,100428.95
2023-04-02T07:20:25.076Z,100417.67
2023-04-02T07:21:26.903Z,100421.16
2023-04-02T07:22:28.694Z,100413.37
2023-04-02T07:23:30.500Z,100421.19
2023-04-02T07:24:32.311Z,100416.01
2023-04-02T07:25:34.402Z,100423.80
2023-04-02T07:26:36.461Z,100419.47
2023-04-02T07:27:38.286Z,100416.86
2023-04-02T07:28:40.115Z,100423.83
2023-04-02T07:29:41.924Z,100412.58
2023-04-02T07:30:43.734Z,100412.59
2023-04-02T07:31:45.662Z,100415.19
2023-04-02T07:32:47.541Z,100411.69
2023-04-02T07:33:49.316Z,100412.59
2023-04-02T07:34:51.114Z,100414.31
2023-04-02T07:35:52.995Z,100410.86
2023-04-02T07:36:55.076Z,100407.41
2023-04-02T07:37:56.876Z,100399.59
2023-04-02T07:38:58.676Z,100403.91
2023-04-02T07:40:00.496Z,100408.27
2023-04-02T07:41:02.309Z,100410.02
2023-04-02T07:42:04.168Z,100411.73
2023-04-02T07:43:05.987Z,100406.52
2023-04-02T07:44:07.800Z,100405.67
2023-04-02T07:45:09.606Z,100396.14
2023-04-02T07:46:11.455Z,100405.70
2023-04-02T07:47:13.296Z,100398.75
2023-04-02T07:48:17.063Z,100398.80
2023-04-02T07:49:21.019Z,100390.11
2023-04-02T07:50:25.257Z,100393.59
2023-04-02T07:51:28.116Z,100388.41
2023-04-02T07:52:29.943Z,100390.13
2023-04-02T07:53:31.741Z,100386.68
2023-04-02T07:54:33.577Z,100388.44
2023-04-02T07:55:35.537Z,100385.84
2023-04-02T07:56:37.504Z,100384.09
2023-04-02T07:57:39.356Z,100385.85
2023-04-02T07:58:41.174Z,100383.25
2023-04-02T07:59:43.001Z,100385.01
2023-04-02T08:00:44.811Z,100378.05
2023-04-02T08:01:46.624Z,100377.20
2023-04-02T08:02:48.552Z,100374.59
2023-04-02T08:03:51.730Z,100372.85
2023-04-02T08:04:53.994Z,100374.60
2023-04-02T08:05:55.789Z,100369.40
2023-04-02T08:06:57.601Z,100371.15
2023-04-02T08:07:59.451Z,100367.66
2023-04-02T08:09:01.273Z,100371.16
2023-04-02T08:10:03.082Z,100364.19
2023-04-02T08:11:04.931Z,100366.80
2023-04-02T08:12:06.739Z,100369.41
2023-04-02T08:13:08.587Z,100365.94
2023-04-02T08:14:10.416Z,100364.19
2023-04-02T08:15:12.246Z,100363.34
2023-04-02T08:16:14.229Z,100368.55
2023-04-02T08:17:16.062Z,100359.84
2023-04-02T08:18:17.922Z,100365.05
2023-04-02T08:19:19.738Z,100353.78
2023-04-02T08:20:21.543Z,100367.66
2023-04-02T08:21:23.391Z,100353.78
2023-04-02T08:22:25.201Z,100358.13
2023-04-02T08:23:26.922Z,100359.02
2023-04-02T08:24:28.698Z,100360.77
2023-04-02T08:25:30.407Z,100356.42
2023-04-02T08:26:32.205Z,100350.34
2023-04-02T08:27:34.033Z,100356.42
2023-04-02T08:28:35.880Z,100358.16
2023-04-02T08:29:37.701Z,100359.02
2023-04-02T08:30:39.584Z,100350.31
2023-04-02T08:31:41.443Z,100350.31
2023-04-02T08:32:43.307Z,100347.70
2023-04-02T08:33:45.111Z,100353.78
2023-04-02T08:34:46.905Z,100362.48
2023-04-02T08:35:48.788Z,100361.63
2023-04-02T08:36:50.742Z,100359.84
2023-04-02T08:37:52.556Z,100365.06
2023-04-02T08:38:54.399Z,100359.84
2023-04-02T08:39:56.217Z,100350.31
2023-04-02T08:40:58.133Z,100351.17
2023-04-02T08:41:59.948Z,100352.92
2023-04-02T08:43:01.779Z,100350.31
2023-04-02T08:44:03.646Z,100350.31
2023-04-02T08:45:17.195Z,100351.17
2023-04-02T08:46:09.256Z,100359.84
2023-04-02T08:47:11.018Z,100358.16
2023-04-02T08:48:12.830Z,100353.81
2023-04-02T08:49:14.686Z,100356.42
2023-04-02T08:50:16.621Z,100357.27
2023-04-02T08:51:18.415Z,100369.45
2023-04-02T08:52:20.242Z,100371.20
2023-04-02T08:53:22.091Z,100366.84
2023-04-02T08:54:23.967Z,100375.52
2023-04-02T08:55:25.790Z,100371.20
2023-04-02T08:56:27.673Z,100378.12
2023-04-02T08:57:29.545Z,100377.27
2023-04-02T08:58:31.412Z,100376.41
2023-04-02T08:59:33.138Z,100377.27
2023-04-02T09:00:36.795Z,100372.05
2023-04-02T09:01:38.599Z,100371.20
2023-04-02T09:02:40.583Z,100367.73
2023-04-02T09:03:42.379Z,100371.20
2023-04-02T09:04:44.245Z,100373.80
2023-04-02T09:05:46.039Z,100376.41
2023-04-02T09:06:47.965Z,100374.66
2023-04-02T09:07:49.766Z,100375.55
2023-04-02T09:08:51.570Z,100386.84
2023-04-02T09:09:53.442Z,100377.27
2023-04-02T09:10:55.255Z,100375.55
2023-04-02T09:11:57.078Z,100381.62
2023-04-02T09:12:58.887Z,100384.23
2023-04-02T09:14:00.738Z,100380.77
2023-04-02T09:15:02.622Z,100392.05
2023-04-02T09:16:04.586Z,100388.58
2023-04-02T09:17:06.430Z,100387.69
2023-04-02T09:18:08.335Z,100393.80
2023-04-02T09:19:10.106Z,100393.80
2023-04-02T09:20:12.697Z,100392.05
2023-04-02T09:21:14.529Z,100391.19
2023-04-02T09:22:16.364Z,100399.87
2023-04-02T09:23:18.174Z,100401.62
2023-04-02T09:24:19.966Z,100393.80
2023-04-02T09:25:21.962Z,100389.44
2023-04-02T09:26:23.898Z,100398.12
2023-04-02T09:27:25.727Z,100392.91
2023-04-02T09:28:27.500Z,100392.05
2023-04-02T09:29:29.326Z,100392.05
2023-04-02T09:30:31.194Z,100389.44
2023-04-02T09:31:33.024Z,100392.91
2023-04-02T09:32:34.858Z,100393.80
2023-04-02T09:33:36.725Z,100398.12
2023-04-02T09:34:38.533Z,100394.66
2023-04-02T09:35:40.559Z,100392.94
2023-04-02T09:36:42.496Z,100393.80
2023-04-02T09:37:44.298Z,100394.66
2023-04-02T09:38:46.137Z,100385.98
2023-04-02T09:39:47.951Z,100385.97
2023-04-02T09:40:49.818Z,100393.80
2023-04-02T09:42:02.818Z,100390.33
2023-04-02T09:42:55.257Z,100392.94
2023-04-02T09:43:57.050Z,100389.44
2023-04-02T09:44:58.917Z,100393.80
2023-04-02T09:46:00.770Z,100388.58
2023-04-02T09:47:02.667Z,100395.55
2023-04-02T09:48:04.545Z,100397.25
2023-04-02T09:49:06.353Z,100395.55
2023-04-02T09:50:08.430Z,100398.15
2023-04-02T09:51:10.275Z,100388.58
2023-04-02T09:52:12.093Z,100392.94
2023-04-02T09:53:13.891Z,100383.36
2023-04-02T09:54:15.706Z,100385.97
2023-04-02T09:55:17.524Z,100386.83
2023-04-02T09:56:19.363Z,100383.37
2023-04-02T09:57:21.272Z,100382.51
2023-04-02T09:58:23.162Z,100383.37
2023-04-02T09:59:25.015Z,100386.83
2023-04-02T10:00:41.621Z,100385.97
2023-04-02T10:01:30.462Z,100383.37
2023-04-02T10:02:32.228Z,100385.97
2023-04-02T10:03:33.967Z,100385.97
2023-04-02T10:04:36.457Z,100379.01
2023-04-02T10:05:41.046Z,100385.12
2023-04-02T10:06:42.072Z,100379.01
2023-04-02T10:07:43.978Z,100378.15
2023-04-02T10:08:45.761Z,100380.76
2023-04-02T10:09:47.577Z,100377.30
2023-04-02T10:10:49.519Z,100378.15
2023-04-02T10:11:51.377Z,100379.01
2023-04-02T10:12:53.175Z,100379.01
2023-04-02T10:13:54.975Z,100372.08
2023-04-02T10:14:56.929Z,100383.37
2023-04-02T10:15:58.748Z,100379.01
2023-04-02T10:17:00.697Z,100376.41
2023-04-02T10:18:02.758Z,100376.41
2023-04-02T10:19:04.619Z,100379.01
2023-04-02T10:20:06.598Z,100384.22
2023-04-02T10:21:08.451Z,100373.80
2023-04-02T10:22:10.323Z,100379.01
2023-04-02T10:23:12.025Z,100373.80
2023-04-02T10:24:13.840Z,100374.69
2023-04-02T10:25:15.644Z,100374.69
2023-04-02T10:26:17.870Z,100370.33
2023-04-02T10:27:20.081Z,100372.94
2023-04-02T10:28:21.900Z,100382.50
2023-04-02T10:29:23.726Z,100374.69
2023-04-02T10:30:25.528Z,100368.58
2023-04-02T10:31:27.502Z,100379.90
2023-04-02T10:32:29.469Z,100376.41
2023-04-02T10:33:31.333Z,100366.86
2023-04-02T10:34:33.157Z,100370.33
2023-04-02T10:35:35.187Z,100372.94
2023-04-02T10:36:37.226Z,100372.94
2023-04-02T10:37:39.084Z,100376.41
2023-04-02T10:38:40.905Z,100374.69
2023-04-02T10:39:42.714Z,100372.94
2023-04-02T10:40:44.519Z,100372.05
2023-04-02T10:41:46.310Z,100367.73
2023-04-02T10:42:48.188Z,100367.73
2023-04-02T10:43:50.013Z,100365.13
2023-04-02T10:44:51.785Z,100360.77
2023-04-02T10:45:53.620Z,100351.20
2023-04-02T10:46:55.393Z,100349.48
2023-04-02T10:47:57.316Z,100352.95
2023-04-02T10:48:59.170Z,100348.59
2023-04-02T10:50:00.973Z,100342.52
2023-04-02T10:51:02.856Z,100350.34
2023-04-02T10:52:04.689Z,100346.02
2023-04-02T10:53:06.550Z,100348.59
2023-04-02T10:54:08.358Z,100341.66
2023-04-02T10:55:10.160Z,100345.13
2023-04-02T10:56:12.296Z,100347.73
2023-04-02T10:57:14.090Z,100348.59
2023-04-02T10:58:15.917Z,100342.52
2023-04-02T10:59:17.738Z,100341.66
2023-04-02T11:00:19.562Z,100342.52
2023-04-02T11:01:21.679Z,100337.31
2023-04-02T11:02:23.576Z,100338.17
2023-04-02T11:03:25.511Z,100339.92
2023-04-02T11:04:27.574Z,100332.95
2023-04-02T11:05:29.377Z,100340.77
2023-04-02T11:06:31.274Z,100336.45
2023-04-02T11:07:33.070Z,100339.05
2023-04-02T11:08:34.919Z,100330.38
2023-04-02T11:09:36.720Z,100333.84
2023-04-02T11:10:38.526Z,100330.34
2023-04-02T11:11:40.314Z,100326.02
2023-04-02T11:12:42.273Z,100325.15
2023-04-02T11:13:44.205Z,100319.05
2023-04-02T11:14:46.019Z,100334.69
2023-04-02T11:15:47.876Z,100321.64
2023-04-02T11:16:49.926Z,100323.39
2023-04-02T11:17:51.786Z,100328.60
2023-04-02T11:18:53.710Z,100325.13
2023-04-02T11:19:55.509Z,100324.24
2023-04-02T11:20:57.333Z,100319.02
2023-04-02T11:22:00.797Z,100326.84
2023-04-02T11:23:02.725Z,100328.59
2023-04-02T11:24:04.572Z,100327.73
2023-04-02T11:25:06.400Z,100325.13
2023-04-02T11:26:08.212Z,100332.06
2023-04-02T11:27:10.021Z,100334.66
2023-04-02T11:28:11.825Z,100332.06
2023-04-02T11:29:13.695Z,100333.81
2023-04-02T11:30:15.508Z,100333.81
2023-04-02T11:31:17.371Z,100332.95
2023-04-02T11:32:19.179Z,100338.16
2023-04-02T11:33:29.991Z,100333.80
2023-04-02T11:34:24.650Z,100331.19
2023-04-02T11:35:26.473Z,100340.77
2023-04-02T11:36:28.272Z,100333.80
2023-04-02T11:37:30.090Z,100329.46
2023-04-02T11:38:31.885Z,100323.34
2023-04-02T11:39:33.744Z,100323.34
2023-04-02T11:40:35.562Z,100328.55
2023-04-02T11:41:37.363Z,100324.23
2023-04-02T11:42:39.179Z,100329.45
2023-04-02T11:43:40.992Z,100325.09
2023-04-02T11:44:43.156Z,100327.70
2023-04-02T11:45:52.652Z,100325.10